sensor_id;sensor_type;location;lat;lon;timestamp;pressure;altitude;pressure_sealevel;temperature;humidity
40596;BME280;26304;48.794;9.820;2023-02-18T00:04:16;97153.97;;;18.16;52.08
40596;BME280;26304;48.794;9.820;2023-02-18T00:10:00;97161.53;;;18.18;51.45
40596;BME280;26304;48.794;9.820;2023-02-18T00:15:42;97145.66;;;18.14;51.43
40596;BME280;26304;48.794;9.820;2023-02-18T00:21:25;97146.44;;;18.14;51.42
40596;BME280;26304;48.794;9.820;2023-02-18T00:27:08;97132.84;;;18.12;51.63
40596;BME280;26304;48.794;9.820;2023-02-18T00:32:51;97117.78;;;18.09;51.78
40596;BME280;26304;48.794;9.820;2023-02-18T00:38:33;97118.13;;;18.08;51.49
40596;BME280;26304;48.794;9.820;2023-02-18T00:44:17;97115.16;;;18.09;51.22
40596;BME280;26304;48.794;9.820;2023-02-18T00:49:59;97111.72;;;18.09;51.45
40596;BME280;26304;48.794;9.820;2023-02-18T00:55:43;97119.22;;;18.07;51.86
40596;BME280;26304;48.794;9.820;2023-02-18T01:01:29;97127.47;;;18.05;51.78
40596;BME280;26304;48.794;9.820;2023-02-18T01:07:11;97122.94;;;18.06;51.15
40596;BME280;26304;48.794;9.820;2023-02-18T01:12:54;97131.53;;;18.03;51.39
40596;BME280;26304;48.794;9.820;2023-02-18T01:18:38;97141.72;;;18.04;51.54
40596;BME280;26304;48.794;9.820;2023-02-18T01:24:21;97143.25;;;18.05;51.50
40596;BME280;26304;48.794;9.820;2023-02-18T01:30:05;97123.66;;;18.03;51.36
40596;BME280;26304;48.794;9.820;2023-02-18T01:35:51;97119.84;;;18.00;51.43
40596;BME280;26304;48.794;9.820;2023-02-18T01:41:34;97130.78;;;18.02;51.40
40596;BME280;26304;48.794;9.820;2023-02-18T01:47:17;97136.69;;;17.95;51.56
40596;BME280;26304;48.794;9.820;2023-02-18T01:53:01;97121.34;;;18.01;51.82
40596;BME280;26304;48.794;9.820;2023-02-18T01:58:44;97117.06;;;17.93;51.82
40596;BME280;26304;48.794;9.820;2023-02-18T02:04:26;97119.38;;;17.94;51.80
40596;BME280;26304;48.794;9.820;2023-02-18T02:10:11;97113.00;;;17.95;51.27
40596;BME280;26304;48.794;9.820;2023-02-18T02:15:58;97104.63;;;17.90;51.99
40596;BME280;26304;48.794;9.820;2023-02-18T02:22:02;97097.91;;;17.92;51.73
40596;BME280;26304;48.794;9.820;2023-02-18T02:28:31;97104.19;;;18.50;50.10
40596;BME280;26304;48.794;9.820;2023-02-18T02:34:53;97106.31;;;19.74;47.90
40596;BME280;26304;48.794;9.820;2023-02-18T02:40:40;97092.31;;;20.42;46.71
40596;BME280;26304;48.794;9.820;2023-02-18T02:46:28;97087.59;;;20.62;46.36
40596;BME280;26304;48.794;9.820;2023-02-18T02:52:16;97088.00;;;20.64;46.71
40596;BME280;26304;48.794;9.820;2023-02-18T02:58:02;97073.94;;;21.04;46.09
40596;BME280;26304;48.794;9.820;2023-02-18T03:04:08;97068.81;;;21.44;45.04
40596;BME280;26304;48.794;9.820;2023-02-18T03:10:10;97064.34;;;21.55;45.30
40596;BME280;26304;48.794;9.820;2023-02-18T03:16:03;97079.09;;;21.49;45.21
40596;BME280;26304;48.794;9.820;2023-02-18T03:21:52;97075.44;;;21.83;44.99
40596;BME280;26304;48.794;9.820;2023-02-18T03:27:42;97075.09;;;22.09;44.59
40596;BME280;26304;48.794;9.820;2023-02-18T03:33:27;97066.81;;;22.29;44.05
40596;BME280;26304;48.794;9.820;2023-02-18T03:39:14;97067.94;;;22.64;43.77
40596;BME280;26304;48.794;9.820;2023-02-18T03:44:58;97077.81;;;22.45;44.30
40596;BME280;26304;48.794;9.820;2023-02-18T03:50:40;97068.34;;;22.52;44.09
40596;BME280;26304;48.794;9.820;2023-02-18T03:56:23;97064.53;;;22.17;44.75
40596;BME280;26304;48.794;9.820;2023-02-18T04:02:07;97065.22;;;21.81;45.74
40596;BME280;26304;48.794;9.820;2023-02-18T04:07:50;97065.88;;;21.60;46.21
40596;BME280;26304;48.794;9.820;2023-02-18T04:13:32;97061.97;;;21.32;46.70
40596;BME280;26304;48.794;9.820;2023-02-18T04:19:16;97059.59;;;21.09;47.17
40596;BME280;26304;48.794;9.820;2023-02-18T04:24:58;97048.63;;;21.03;47.31
40596;BME280;26304;48.794;9.820;2023-02-18T04:30:41;97047.97;;;21.28;46.68
40596;BME280;26304;48.794;9.820;2023-02-18T04:36:25;97051.84;;;21.45;46.45
40596;BME280;26304;48.794;9.820;2023-02-18T04:42:08;97044.34;;;21.58;46.11
40596;BME280;26304;48.794;9.820;2023-02-18T04:47:51;97030.84;;;22.13;45.11
40596;BME280;26304;48.794;9.820;2023-02-18T04:53:34;97034.66;;;22.41;44.49
40596;BME280;26304;48.794;9.820;2023-02-18T04:59:17;97042.94;;;23.01;43.66
40596;BME280;26304;48.794;9.820;2023-02-18T05:04:59;97036.94;;;22.32;44.94
40596;BME280;26304;48.794;9.820;2023-02-18T05:10:43;97047.09;;;22.05;45.74
40596;BME280;26304;48.794;9.820;2023-02-18T05:16:26;97051.63;;;21.86;45.94
40596;BME280;26304;48.794;9.820;2023-02-18T05:22:08;97050.00;;;21.60;46.52
40596;BME280;26304;48.794;9.820;2023-02-18T05:27:52;97043.47;;;21.39;46.79
40596;BME280;26304;48.794;9.820;2023-02-18T05:33:34;97048.34;;;21.23;47.17
40596;BME280;26304;48.794;9.820;2023-02-18T05:39:16;97028.63;;;21.06;47.45
40596;BME280;26304;48.794;9.820;2023-02-18T05:45:00;97029.97;;;20.78;48.40
40596;BME280;26304;48.794;9.820;2023-02-18T05:50:43;97034.84;;;20.73;48.70
40596;BME280;26304;48.794;9.820;2023-02-18T05:56:25;97039.66;;;20.63;48.63
40596;BME280;26304;48.794;9.820;2023-02-18T06:02:09;97042.72;;;20.69;48.54
40596;BME280;26304;48.794;9.820;2023-02-18T06:07:51;97038.09;;;20.55;49.19
40596;BME280;26304;48.794;9.820;2023-02-18T06:13:34;97040.41;;;20.60;49.39
40596;BME280;26304;48.794;9.820;2023-02-18T06:19:17;97042.66;;;20.58;49.16
40596;BME280;26304;48.794;9.820;2023-02-18T06:25:00;97037.28;;;20.47;48.91
40596;BME280;26304;48.794;9.820;2023-02-18T06:30:43;97041.13;;;20.57;49.57
40596;BME280;26304;48.794;9.820;2023-02-18T06:36:30;97044.13;;;20.52;49.21
40596;BME280;26304;48.794;9.820;2023-02-18T06:42:12;97035.09;;;20.57;49.45
40596;BME280;26304;48.794;9.820;2023-02-18T06:47:54;97052.47;;;20.61;49.41
40596;BME280;26304;48.794;9.820;2023-02-18T06:53:38;97044.88;;;20.56;49.16
40596;BME280;26304;48.794;9.820;2023-02-18T06:59:21;97044.88;;;20.56;49.42
40596;BME280;26304;48.794;9.820;2023-02-18T07:05:04;97032.75;;;20.48;49.70
40596;BME280;26304;48.794;9.820;2023-02-18T07:10:47;97021.75;;;20.39;49.64
40596;BME280;26304;48.794;9.820;2023-02-18T07:16:30;97029.34;;;20.44;49.31
40596;BME280;26304;48.794;9.820;2023-02-18T07:22:13;97032.72;;;20.41;49.39
40596;BME280;26304;48.794;9.820;2023-02-18T07:27:56;97019.06;;;20.35;49.20
40596;BME280;26304;48.794;9.820;2023-02-18T07:33:39;97010.03;;;20.36;49.20
40596;BME280;26304;48.794;9.820;2023-02-18T07:39:21;97004.31;;;20.30;49.07
40596;BME280;26304;48.794;9.820;2023-02-18T07:45:06;97010.72;;;20.29;49.16
40596;BME280;26304;48.794;9.820;2023-02-18T07:50:48;96989.56;;;20.26;49.15
40596;BME280;26304;48.794;9.820;2023-02-18T07:56:31;96989.94;;;20.24;49.03
40596;BME280;26304;48.794;9.820;2023-02-18T08:02:17;97003.16;;;20.24;49.03
40596;BME280;26304;48.794;9.820;2023-02-18T08:07:59;96993.31;;;20.21;48.70
40596;BME280;26304;48.794;9.820;2023-02-18T08:13:42;96997.09;;;20.20;48.76
40596;BME280;26304;48.794;9.820;2023-02-18T08:19:26;96984.22;;;20.15;48.83
40596;BME280;26304;48.794;9.820;2023-02-18T08:25:08;96981.19;;;20.13;48.82
40596;BME280;26304;48.794;9.820;2023-02-18T08:30:52;96984.97;;;20.12;48.95
40596;BME280;26304;48.794;9.820;2023-02-18T08:36:36;96970.59;;;20.09;48.73
40596;BME280;26304;48.794;9.820;2023-02-18T08:42:19;96960.41;;;20.08;48.76
40596;BME280;26304;48.794;9.820;2023-02-18T08:48:01;96963.06;;;20.08;48.75
40596;BME280;26304;48.794;9.820;2023-02-18T08:53:45;96956.69;;;20.12;49.26
40596;BME280;26304;48.794;9.820;2023-02-18T08:59:28;96975.25;;;20.23;48.88
40596;BME280;26304;48.794;9.820;2023-02-18T09:05:11;96943.50;;;20.16;48.84
40596;BME280;26304;48.794;9.820;2023-02-18T09:10:55;96952.53;;;20.15;49.08
40596;BME280;26304;48.794;9.820;2023-02-18T09:16:39;96974.78;;;20.14;49.65
40596;BME280;26304;48.794;9.820;2023-02-18T09:22:21;96946.88;;;20.17;48.95
40596;BME280;26304;48.794;9.820;2023-02-18T09:28:06;96930.38;;;20.23;48.88
40596;BME280;26304;48.794;9.820;2023-02-18T09:33:51;96936.00;;;20.22;48.95
40596;BME280;26304;48.794;9.820;2023-02-18T09:39:33;96936.69;;;20.15;49.33
40596;BME280;26304;48.794;9.820;2023-02-18T09:45:17;96943.50;;;20.16;49.08
40596;BME280;26304;48.794;9.820;2023-02-18T09:51:02;96932.22;;;20.19;49.12
40596;BME280;26304;48.794;9.820;2023-02-18T09:56:45;96908.44;;;20.19;48.69
40596;BME280;26304;48.794;9.820;2023-02-18T10:02:30;96895.97;;;20.12;49.03
40596;BME280;26304;48.794;9.820;2023-02-18T10:08:19;96908.00;;;20.10;49.02
40596;BME280;26304;48.794;9.820;2023-02-18T10:14:08;96913.34;;;20.17;48.83
40596;BME280;26304;48.794;9.820;2023-02-18T10:19:55;96925.41;;;20.18;49.15
40596;BME280;26304;48.794;9.820;2023-02-18T10:25:42;96920.06;;;20.07;49.08
40596;BME280;26304;48.794;9.820;2023-02-18T10:31:29;96924.56;;;20.07;49.26
40596;BME280;26304;48.794;9.820;2023-02-18T10:37:27;96934.47;;;20.17;48.74
40596;BME280;26304;48.794;9.820;2023-02-18T10:43:17;96916.00;;;20.17;48.43
40596;BME280;26304;48.794;9.820;2023-02-18T10:49:12;96922.03;;;20.21;48.52
40596;BME280;26304;48.794;9.820;2023-02-18T10:55:08;96917.63;;;20.36;49.05
40596;BME280;26304;48.794;9.820;2023-02-18T11:00:51;96910.44;;;20.33;48.97
40596;BME280;26304;48.794;9.820;2023-02-18T11:06:38;96923.88;;;20.13;48.41
40596;BME280;26304;48.794;9.820;2023-02-18T11:12:25;96909.47;;;19.21;47.71
40596;BME280;26304;48.794;9.820;2023-02-18T11:18:13;96899.22;;;19.50;48.58
40596;BME280;26304;48.794;9.820;2023-02-18T11:23:57;96879.91;;;19.80;47.96
40596;BME280;26304;48.794;9.820;2023-02-18T11:29:50;96874.69;;;19.87;47.88
40596;BME280;26304;48.794;9.820;2023-02-18T11:35:34;96837.75;;;19.87;48.25
40596;BME280;26304;48.794;9.820;2023-02-18T11:41:19;96835.88;;;19.91;48.71
40596;BME280;26304;48.794;9.820;2023-02-18T11:47:08;96837.81;;;19.94;48.46
40596;BME280;26304;48.794;9.820;2023-02-18T11:53:24;96841.22;;;20.02;49.27
40596;BME280;26304;48.794;9.820;2023-02-18T11:59:09;96833.34;;;20.06;49.45
40596;BME280;26304;48.794;9.820;2023-02-18T12:04:57;96843.56;;;20.18;49.71
40596;BME280;26304;48.794;9.820;2023-02-18T12:10:47;96834.97;;;20.28;49.54
40596;BME280;26304;48.794;9.820;2023-02-18T12:16:35;96837.19;;;20.19;49.59
40596;BME280;26304;48.794;9.820;2023-02-18T12:22:31;96827.41;;;20.23;49.69
40596;BME280;26304;48.794;9.820;2023-02-18T12:28:30;96821.34;;;20.19;50.06
40596;BME280;26304;48.794;9.820;2023-02-18T12:34:28;96820.97;;;20.24;49.85
40596;BME280;26304;48.794;9.820;2023-02-18T12:40:32;96810.84;;;20.26;49.91
40596;BME280;26304;48.794;9.820;2023-02-18T12:46:25;96818.78;;;20.37;49.92
40596;BME280;26304;48.794;9.820;2023-02-18T12:52:21;96822.19;;;20.38;50.00
40596;BME280;26304;48.794;9.820;2023-02-18T12:58:19;96823.31;;;20.37;50.14
40596;BME280;26304;48.794;9.820;2023-02-18T13:04:39;96822.56;;;20.43;49.86
40596;BME280;26304;48.794;9.820;2023-02-18T13:10:51;96830.50;;;20.40;50.06
40596;BME280;26304;48.794;9.820;2023-02-18T13:16:40;96826.75;;;20.41;49.92
40596;BME280;26304;48.794;9.820;2023-02-18T13:22:26;96825.22;;;20.40;50.10
40596;BME280;26304;48.794;9.820;2023-02-18T13:28:17;96828.22;;;20.38;50.28
40596;BME280;26304;48.794;9.820;2023-02-18T13:34:09;96818.78;;;20.37;50.43
40596;BME280;26304;48.794;9.820;2023-02-18T13:39:55;96818.44;;;20.46;50.01
40596;BME280;26304;48.794;9.820;2023-02-18T13:45:38;96800.38;;;20.55;50.06
40596;BME280;26304;48.794;9.820;2023-02-18T13:51:30;96801.09;;;20.48;50.16
40596;BME280;26304;48.794;9.820;2023-02-18T13:57:16;96811.69;;;20.52;50.21
40596;BME280;26304;48.794;9.820;2023-02-18T14:03:04;96804.88;;;20.55;50.08
40596;BME280;26304;48.794;9.820;2023-02-18T14:09:34;96789.41;;;20.53;49.86
40596;BME280;26304;48.794;9.820;2023-02-18T14:21:45;96795.84;;;20.56;49.69
40596;BME280;26304;48.794;9.820;2023-02-18T14:27:29;96780.38;;;20.50;49.70
40596;BME280;26304;48.794;9.820;2023-02-18T14:33:14;96773.19;;;20.47;50.34
40596;BME280;26304;48.794;9.820;2023-02-18T14:39:01;96771.66;;;20.46;50.69
40596;BME280;26304;48.794;9.820;2023-02-18T14:44:57;96777.31;;;20.48;49.51
40596;BME280;26304;48.794;9.820;2023-02-18T14:50:47;96785.25;;;20.48;49.50
40596;BME280;26304;48.794;9.820;2023-02-18T14:56:32;96766.00;;;20.48;49.73
40596;BME280;26304;48.794;9.820;2023-02-18T15:02:23;96761.09;;;20.50;49.77
40596;BME280;26304;48.794;9.820;2023-02-18T15:08:16;96768.28;;;20.53;49.63
40596;BME280;26304;48.794;9.820;2023-02-18T15:13:59;96772.81;;;20.53;49.30
40596;BME280;26304;48.794;9.820;2023-02-18T15:19:47;96768.66;;;20.51;49.87
40596;BME280;26304;48.794;9.820;2023-02-18T15:25:30;96772.44;;;20.54;49.86
40596;BME280;26304;48.794;9.820;2023-02-18T15:31:12;96769.78;;;20.47;50.12
40596;BME280;26304;48.794;9.820;2023-02-18T15:36:58;96775.44;;;20.45;50.44
40596;BME280;26304;48.794;9.820;2023-02-18T15:42:41;96776.16;;;20.31;50.01
40596;BME280;26304;48.794;9.820;2023-02-18T15:48:28;96788.94;;;20.26;50.44
40596;BME280;26304;48.794;9.820;2023-02-18T15:54:15;96785.03;;;19.94;49.45
40596;BME280;26304;48.794;9.820;2023-02-18T16:00:12;96772.50;;;19.81;48.29
40596;BME280;26304;48.794;9.820;2023-02-18T16:06:09;96765.84;;;20.01;49.10
40596;BME280;26304;48.794;9.820;2023-02-18T16:11:54;96772.66;;;20.09;49.40
40596;BME280;26304;48.794;9.820;2023-02-18T16:17:42;96770.75;;;20.06;49.89
40596;BME280;26304;48.794;9.820;2023-02-18T16:23:34;96775.66;;;20.08;49.91
40596;BME280;26304;48.794;9.820;2023-02-18T16:29:24;96781.31;;;20.10;49.91
40596;BME280;26304;48.794;9.820;2023-02-18T16:35:07;96780.16;;;20.04;50.15
40596;BME280;26304;48.794;9.820;2023-02-18T16:40:49;96771.53;;;20.14;50.50
40596;BME280;26304;48.794;9.820;2023-02-18T16:46:35;96774.56;;;20.12;51.56
40596;BME280;26304;48.794;9.820;2023-02-18T16:52:18;96773.75;;;20.05;52.09
40596;BME280;26304;48.794;9.820;2023-02-18T16:58:00;96786.56;;;20.03;52.34
40596;BME280;26304;48.794;9.820;2023-02-18T17:03:44;96789.66;;;20.19;51.89
40596;BME280;26304;48.794;9.820;2023-02-18T17:09:27;96798.75;;;20.25;52.37
40596;BME280;26304;48.794;9.820;2023-02-18T17:15:24;96808.19;;;20.30;52.15
40596;BME280;26304;48.794;9.820;2023-02-18T17:21:11;96805.56;;;20.26;52.25
40596;BME280;26304;48.794;9.820;2023-02-18T17:26:53;96819.50;;;20.34;52.01
40596;BME280;26304;48.794;9.820;2023-02-18T17:32:36;96823.72;;;20.42;52.24
40596;BME280;26304;48.794;9.820;2023-02-18T17:38:19;96831.94;;;20.26;52.30
40596;BME280;26304;48.794;9.820;2023-02-18T17:44:04;96833.50;;;20.35;52.64
40596;BME280;26304;48.794;9.820;2023-02-18T17:49:46;96841.44;;;20.42;52.76
40596;BME280;26304;48.794;9.820;2023-02-18T17:55:31;96855.44;;;20.46;52.91
40596;BME280;26304;48.794;9.820;2023-02-18T18:01:15;96858.44;;;20.51;53.06
40596;BME280;26304;48.794;9.820;2023-02-18T18:06:58;96867.25;;;20.66;53.02
40596;BME280;26304;48.794;9.820;2023-02-18T18:12:42;96859.41;;;20.99;55.13
40596;BME280;26304;48.794;9.820;2023-02-18T18:18:25;96868.13;;;21.14;54.42
40596;BME280;26304;48.794;9.820;2023-02-18T18:24:10;96863.22;;;21.09;53.93
40596;BME280;26304;48.794;9.820;2023-02-18T18:29:54;96871.88;;;20.98;54.50
40596;BME280;26304;48.794;9.820;2023-02-18T18:35:36;96875.97;;;20.85;54.94
40596;BME280;26304;48.794;9.820;2023-02-18T18:41:20;96879.00;;;20.80;55.22
40596;BME280;26304;48.794;9.820;2023-02-18T18:47:04;96883.16;;;20.81;54.81
40596;BME280;26304;48.794;9.820;2023-02-18T18:52:48;96874.13;;;20.96;55.73
40596;BME280;26304;48.794;9.820;2023-02-18T18:58:30;96891.03;;;20.70;54.87
40596;BME280;26304;48.794;9.820;2023-02-18T19:04:14;96881.13;;;20.60;55.35
40596;BME280;26304;48.794;9.820;2023-02-18T19:09:57;96880.09;;;20.72;54.65
40596;BME280;26304;48.794;9.820;2023-02-18T19:15:39;96888.53;;;21.17;54.37
40596;BME280;26304;48.794;9.820;2023-02-18T19:21:23;96893.66;;;20.70;54.76
40596;BME280;26304;48.794;9.820;2023-02-18T19:27:05;96895.91;;;20.64;54.56
40596;BME280;26304;48.794;9.820;2023-02-18T19:32:51;96891.75;;;20.67;55.26
40596;BME280;26304;48.794;9.820;2023-02-18T19:38:35;96898.53;;;20.64;55.10
40596;BME280;26304;48.794;9.820;2023-02-18T19:44:18;96893.28;;;20.68;54.54
40596;BME280;26304;48.794;9.820;2023-02-18T19:50:00;96889.88;;;20.67;53.77
40596;BME280;26304;48.794;9.820;2023-02-18T19:55:44;96897.84;;;20.78;54.12
40596;BME280;26304;48.794;9.820;2023-02-18T20:01:27;96894.03;;;20.72;54.52
40596;BME280;26304;48.794;9.820;2023-02-18T20:07:10;96894.78;;;20.69;54.72
40596;BME280;26304;48.794;9.820;2023-02-18T20:12:54;96907.56;;;20.63;54.57
40596;BME280;26304;48.794;9.820;2023-02-18T20:18:37;96899.25;;;20.61;54.39
40596;BME280;26304;48.794;9.820;2023-02-18T20:24:19;96903.03;;;20.60;54.26
40596;BME280;26304;48.794;9.820;2023-02-18T20:30:04;96901.13;;;20.57;54.23
40596;BME280;26304;48.794;9.820;2023-02-18T20:35:54;96904.88;;;20.56;54.22
40596;BME280;26304;48.794;9.820;2023-02-18T20:41:36;96903.25;;;20.33;52.80
40596;BME280;26304;48.794;9.820;2023-02-18T20:47:20;96897.22;;;19.77;50.75
40596;BME280;26304;48.794;9.820;2023-02-18T20:53:03;96903.22;;;19.37;50.75
40596;BME280;26304;48.794;9.820;2023-02-18T20:58:45;96896.69;;;19.23;50.15
40596;BME280;26304;48.794;9.820;2023-02-18T21:04:29;96897.81;;;19.22;50.36
40596;BME280;26304;48.794;9.820;2023-02-18T21:10:12;96896.41;;;18.98;50.39
40596;BME280;26304;48.794;9.820;2023-02-18T21:15:54;96894.44;;;19.26;50.86
40596;BME280;26304;48.794;9.820;2023-02-18T21:21:39;96886.69;;;19.40;50.59
40596;BME280;26304;48.794;9.820;2023-02-18T21:27:21;96889.38;;;19.44;50.90
40596;BME280;26304;48.794;9.820;2023-02-18T21:33:04;96897.28;;;19.44;50.61
40596;BME280;26304;48.794;9.820;2023-02-18T21:38:51;96902.91;;;19.42;50.95
40596;BME280;26304;48.794;9.820;2023-02-18T21:44:34;96895.00;;;19.42;51.05
40596;BME280;26304;48.794;9.820;2023-02-18T21:50:17;96897.63;;;19.42;51.47
40596;BME280;26304;48.794;9.820;2023-02-18T21:56:09;96899.50;;;19.41;51.13
40596;BME280;26304;48.794;9.820;2023-02-18T22:01:51;96883.66;;;19.38;51.13
40596;BME280;26304;48.794;9.820;2023-02-18T22:07:34;96888.94;;;19.38;51.51
40596;BME280;26304;48.794;9.820;2023-02-18T22:13:18;96888.91;;;19.34;51.63
40596;BME280;26304;48.794;9.820;2023-02-18T22:19:00;96865.53;;;19.33;51.74
40596;BME280;26304;48.794;9.820;2023-02-18T22:24:42;96873.06;;;19.31;51.72
40596;BME280;26304;48.794;9.820;2023-02-18T22:30:26;96871.88;;;19.28;52.07
40596;BME280;26304;48.794;9.820;2023-02-18T22:36:09;96862.81;;;19.26;51.77
40596;BME280;26304;48.794;9.820;2023-02-18T22:41:51;96854.53;;;19.23;51.91
40596;BME280;26304;48.794;9.820;2023-02-18T22:47:35;96851.13;;;19.23;51.93
40596;BME280;26304;48.794;9.820;2023-02-18T22:53:17;96839.78;;;19.19;51.87
40596;BME280;26304;48.794;9.820;2023-02-18T22:59:00;96833.38;;;19.16;52.11
40596;BME280;26304;48.794;9.820;2023-02-18T23:04:44;96837.84;;;19.12;51.90
40596;BME280;26304;48.794;9.820;2023-02-18T23:10:26;96832.19;;;19.10;52.27
40596;BME280;26304;48.794;9.820;2023-02-18T23:16:11;96825.41;;;19.09;51.81
40596;BME280;26304;48.794;9.820;2023-02-18T23:21:56;96821.22;;;19.08;51.95
40596;BME280;26304;48.794;9.820;2023-02-18T23:27:40;96815.56;;;19.06;52.19
40596;BME280;26304;48.794;9.820;2023-02-18T23:33:22;96809.91;;;19.04;52.37
40596;BME280;26304;48.794;9.820;2023-02-18T23:39:08;96811.38;;;19.01;52.06
40596;BME280;26304;48.794;9.820;2023-02-18T23:44:50;96808.38;;;18.99;52.35
40596;BME280;26304;48.794;9.820;2023-02-18T23:50:35;96806.09;;;18.98;52.56
40596;BME280;26304;48.794;9.820;2023-02-18T23:56:20;96787.25;;;18.96;52.28
